createdAt,value
2018-05-19T00:00:32.699Z,11.90
2018-05-19T00:02:59.431Z,12.13
2018-05-19T00:05:26.139Z,12.60
2018-05-19T00:07:52.849Z,11.90
2018-05-19T00:10:19.577Z,13.03
2018-05-19T00:12:46.302Z,12.77
2018-05-19T00:15:13.058Z,13.33
2018-05-19T00:17:39.810Z,12.97
2018-05-19T00:20:06.525Z,12.48
2018-05-19T00:22:38.838Z,11.57
2018-05-19T00:25:05.579Z,12.40
2018-05-19T00:27:32.289Z,12.67
2018-05-19T00:29:59.038Z,12.20
2018-05-19T00:32:25.746Z,12.30
2018-05-19T00:34:52.504Z,12.10
2018-05-19T00:37:19.258Z,11.50
2018-05-19T00:39:45.998Z,11.37
2018-05-19T00:42:12.697Z,12.90
2018-05-19T00:44:39.425Z,12.03
2018-05-19T00:47:06.183Z,11.03
2018-05-19T00:49:32.949Z,11.20
2018-05-19T00:51:59.677Z,10.90
2018-05-19T00:54:32.134Z,10.87
2018-05-19T00:56:58.856Z,11.93
2018-05-19T00:59:25.569Z,10.77
2018-05-19T01:01:52.283Z,10.90
2018-05-19T01:04:19.030Z,10.87
2018-05-19T01:06:45.753Z,10.93
2018-05-19T01:09:12.460Z,11.47
2018-05-19T01:11:39.185Z,11.03
2018-05-19T01:14:05.921Z,11.73
2018-05-19T01:16:32.633Z,11.67
2018-05-19T01:18:59.377Z,11.60
2018-05-19T01:21:26.114Z,12.60
2018-05-19T01:23:52.842Z,11.60
2018-05-19T01:26:19.552Z,11.90
2018-05-19T01:28:46.282Z,11.07
2018-05-19T01:31:13.038Z,13.60
2018-05-19T01:33:39.743Z,12.50
2018-05-19T01:36:06.481Z,12.20
2018-05-19T01:38:33.229Z,12.80
2018-05-19T01:40:59.937Z,12.37
2018-05-19T01:43:26.681Z,12.10
2018-05-19T01:45:53.389Z,11.87
2018-05-19T01:48:20.119Z,11.40
2018-05-19T01:50:46.824Z,11.43
2018-05-19T01:53:13.572Z,11.33
2018-05-19T01:55:40.310Z,11.10
2018-05-19T01:58:07.034Z,12.27
2018-05-19T02:00:33.816Z,11.37
2018-05-19T02:03:00.532Z,10.03
2018-05-19T02:05:27.274Z,12.17
2018-05-19T02:07:54.028Z,12.87
2018-05-19T02:10:20.749Z,11.77
2018-05-19T02:12:47.498Z,10.87
2018-05-19T02:15:14.232Z,11.40
2018-05-19T02:17:40.981Z,10.93
2018-05-19T02:20:07.724Z,11.60
2018-05-19T02:22:34.426Z,12.70
2018-05-19T02:25:01.197Z,12.10
2018-05-19T02:27:27.906Z,11.57
2018-05-19T02:29:54.624Z,12.07
2018-05-19T02:32:21.364Z,12.10
2018-05-19T02:34:48.069Z,12.83
2018-05-19T02:37:14.795Z,12.13
2018-05-19T02:39:41.541Z,12.23
2018-05-19T02:42:08.257Z,12.90
2018-05-19T02:44:34.978Z,12.03
2018-05-19T02:47:01.706Z,12.53
2018-05-19T02:49:28.440Z,12.10
2018-05-19T02:51:55.180Z,12.03
2018-05-19T02:54:21.899Z,11.80
2018-05-19T02:56:48.605Z,12.00
2018-05-19T02:59:15.388Z,12.00
2018-05-19T03:01:42.120Z,10.60
2018-05-19T03:04:08.839Z,11.97
2018-05-19T03:06:35.582Z,11.90
2018-05-19T03:09:02.302Z,11.20
2018-05-19T03:11:29.033Z,11.67
2018-05-19T03:13:55.755Z,11.37
2018-05-19T03:16:22.469Z,12.83
2018-05-19T03:18:49.202Z,13.37
2018-05-19T03:21:15.933Z,13.07
2018-05-19T03:23:42.651Z,13.10
2018-05-19T03:26:09.373Z,13.77
2018-05-19T03:28:36.098Z,12.50
2018-05-19T03:31:02.801Z,13.67
2018-05-19T03:33:29.545Z,12.73
2018-05-19T03:35:56.255Z,13.63
2018-05-19T03:38:22.987Z,13.40
2018-05-19T03:40:49.720Z,13.57
2018-05-19T03:43:16.426Z,12.80
2018-05-19T03:45:43.164Z,11.70
2018-05-19T03:48:09.880Z,12.43
2018-05-19T03:50:36.593Z,12.40
2018-05-19T03:53:03.349Z,12.23
2018-05-19T03:55:30.083Z,12.83
2018-05-19T03:58:02.519Z,13.33
2018-05-19T04:00:34.952Z,12.30
2018-05-19T04:03:01.664Z,13.60
2018-05-19T04:05:28.395Z,13.70
2018-05-19T04:07:55.129Z,14.03
2018-05-19T04:10:21.841Z,14.00
2018-05-19T04:12:48.642Z,13.80
2018-05-19T04:15:15.369Z,13.10
2018-05-19T04:17:42.104Z,13.83
2018-05-19T04:20:08.812Z,13.53
2018-05-19T04:22:35.551Z,14.70
2018-05-19T04:25:02.274Z,13.90
2018-05-19T04:27:28.989Z,14.10
2018-05-19T04:29:55.725Z,13.90
2018-05-19T04:32:22.478Z,14.70
2018-05-19T04:34:49.203Z,14.67
2018-05-19T04:37:15.932Z,14.97
2018-05-19T04:39:42.645Z,13.50
2018-05-19T04:42:09.373Z,16.07
2018-05-19T04:44:36.086Z,16.10
2018-05-19T04:47:02.854Z,15.50
2018-05-19T04:49:29.560Z,16.37
2018-05-19T04:51:56.270Z,15.67
2018-05-19T04:54:23.002Z,15.60
2018-05-19T04:56:49.751Z,15.00
2018-05-19T04:59:16.448Z,15.20
2018-05-19T05:01:43.180Z,14.97
2018-05-19T05:04:09.939Z,14.60
2018-05-19T05:06:36.629Z,16.50
2018-05-19T05:09:03.392Z,16.50
2018-05-19T05:11:30.101Z,17.30
2018-05-19T05:13:56.931Z,17.77
2018-05-19T05:16:23.617Z,17.90
2018-05-19T05:18:50.324Z,17.80
2018-05-19T05:21:17.044Z,17.77
2018-05-19T05:23:43.761Z,17.60
2018-05-19T05:26:10.495Z,17.20
2018-05-19T05:28:37.263Z,15.40
2018-05-19T05:31:04.003Z,14.90
2018-05-19T05:33:30.777Z,15.70
2018-05-19T05:35:57.578Z,14.97
2018-05-19T05:38:24.241Z,16.17
2018-05-19T05:40:50.980Z,16.07
2018-05-19T05:43:17.879Z,16.67
2018-05-19T05:45:44.461Z,14.47
2018-05-19T05:48:11.176Z,14.03
2018-05-19T05:50:37.927Z,15.10
2018-05-19T05:53:04.639Z,15.13
2018-05-19T05:55:31.376Z,14.40
2018-05-19T05:57:58.095Z,14.03
2018-05-19T06:00:24.807Z,15.00
2018-05-19T06:02:51.542Z,14.60
2018-05-19T06:05:18.247Z,14.97
2018-05-19T06:07:44.960Z,14.57
2018-05-19T06:10:11.697Z,14.10
2018-05-19T06:12:38.410Z,15.77
2018-05-19T06:15:05.157Z,14.50
2018-05-19T06:17:31.892Z,14.87
2018-05-19T06:19:58.622Z,14.23
2018-05-19T06:22:25.332Z,14.97
2018-05-19T06:24:52.075Z,13.83
2018-05-19T06:27:18.782Z,13.87
2018-05-19T06:29:45.507Z,14.93
2018-05-19T06:32:12.249Z,14.00
2018-05-19T06:34:38.974Z,12.37
2018-05-19T06:37:05.712Z,12.60
2018-05-19T06:39:32.442Z,13.33
2018-05-19T06:41:59.261Z,13.10
2018-05-19T06:44:25.918Z,13.30
2018-05-19T06:46:52.660Z,13.40
2018-05-19T06:49:19.398Z,13.50
2018-05-19T06:51:46.107Z,12.70
2018-05-19T06:54:12.844Z,13.07
2018-05-19T06:56:39.554Z,12.87
2018-05-19T06:59:06.310Z,12.73
2018-05-19T07:01:33.043Z,12.20
2018-05-19T07:03:59.775Z,11.43
2018-05-19T07:06:26.507Z,10.70
2018-05-19T07:08:53.243Z,11.03
2018-05-19T07:11:19.981Z,10.90
2018-05-19T07:13:46.688Z,10.23
2018-05-19T07:16:13.420Z,10.80
2018-05-19T07:18:40.150Z,11.10
2018-05-19T07:21:06.867Z,10.77
2018-05-19T07:23:33.628Z,10.20
2018-05-19T07:26:00.333Z,10.60
2018-05-19T07:28:27.078Z,10.27
2018-05-19T07:30:53.792Z,10.03
2018-05-19T07:33:20.513Z,10.77
2018-05-19T07:35:47.334Z,8.70
2018-05-19T07:38:13.985Z,10.03
2018-05-19T07:40:40.722Z,9.00
2018-05-19T07:43:07.419Z,9.03
2018-05-19T07:45:34.132Z,10.83
2018-05-19T07:48:00.863Z,9.83
2018-05-19T07:50:27.599Z,11.63
2018-05-19T07:52:54.315Z,10.47
2018-05-19T07:55:21.064Z,10.20
2018-05-19T07:57:47.796Z,9.07
2018-05-19T08:00:14.538Z,8.87
2018-05-19T08:02:41.270Z,10.47
2018-05-19T08:05:07.981Z,9.20
2018-05-19T08:07:34.718Z,9.97
2018-05-19T08:10:01.455Z,9.77
2018-05-19T08:12:28.254Z,11.07
2018-05-19T08:14:54.932Z,9.70
2018-05-19T08:17:21.680Z,9.67
2018-05-19T08:19:48.404Z,10.47
2018-05-19T08:22:15.101Z,9.97
2018-05-19T08:24:41.815Z,10.20
2018-05-19T08:27:08.548Z,9.67
2018-05-19T08:29:35.256Z,9.40
2018-05-19T08:32:01.960Z,9.67
2018-05-19T08:34:28.687Z,9.37
2018-05-19T08:36:55.409Z,9.07
2018-05-19T08:39:22.130Z,9.87
2018-05-19T08:41:48.863Z,9.87
2018-05-19T08:44:15.589Z,9.27
2018-05-19T08:46:42.326Z,9.33
2018-05-19T08:49:09.041Z,9.00
2018-05-19T08:51:35.752Z,9.00
2018-05-19T08:54:02.505Z,8.90
2018-05-19T08:56:29.210Z,8.93
2018-05-19T08:58:55.908Z,8.70
2018-05-19T09:01:22.644Z,8.40
2018-05-19T09:03:49.335Z,8.13
2018-05-19T09:06:16.073Z,8.80
2018-05-19T09:08:42.816Z,8.03
2018-05-19T09:11:09.528Z,8.20
2018-05-19T09:13:36.237Z,8.40
2018-05-19T09:16:02.997Z,9.10
2018-05-19T09:18:29.700Z,8.70
2018-05-19T09:20:56.483Z,9.00
2018-05-19T09:23:23.213Z,8.63
2018-05-19T09:25:49.914Z,9.03
2018-05-19T09:28:16.629Z,7.83
2018-05-19T09:30:43.377Z,9.00
2018-05-19T09:33:10.105Z,8.33
2018-05-19T09:35:36.837Z,9.07
2018-05-19T09:38:03.559Z,8.87
2018-05-19T09:40:30.286Z,9.03
2018-05-19T09:42:57.001Z,8.70
2018-05-19T09:45:23.717Z,8.07
2018-05-19T09:47:50.457Z,8.70
2018-05-19T09:50:17.170Z,8.40
2018-05-19T09:52:43.937Z,8.53
2018-05-19T09:55:10.634Z,9.80
2018-05-19T09:57:37.390Z,8.67
2018-05-19T10:00:04.133Z,9.57
2018-05-19T10:02:30.860Z,9.00
2018-05-19T10:04:57.737Z,8.70
2018-05-19T10:07:24.390Z,9.70
2018-05-19T10:09:51.115Z,8.70
2018-05-19T10:12:18.481Z,8.97
2018-05-19T10:14:45.258Z,8.70
2018-05-19T10:17:15.890Z,8.90
2018-05-19T10:19:43.307Z,8.23
2018-05-19T10:22:10.058Z,8.60
2018-05-19T10:24:36.814Z,8.30
2018-05-19T10:27:03.604Z,8.07
2018-05-19T10:29:30.342Z,8.43
2018-05-19T10:31:57.100Z,8.63
2018-05-19T10:34:23.817Z,9.03
2018-05-19T10:36:50.564Z,9.07
2018-05-19T10:39:17.280Z,8.80
2018-05-19T10:41:44.742Z,8.30
2018-05-19T10:44:12.305Z,9.50
2018-05-19T10:46:39.025Z,8.77
2018-05-19T10:49:05.774Z,8.63
2018-05-19T10:51:32.508Z,10.17
2018-05-19T10:53:59.265Z,9.73
2018-05-19T10:56:26.621Z,9.53
2018-05-19T10:58:53.347Z,8.87
2018-05-19T11:01:20.079Z,8.20
2018-05-19T11:03:46.828Z,8.43
2018-05-19T11:06:13.628Z,8.27
2018-05-19T11:08:40.684Z,8.30
2018-05-19T11:11:11.217Z,7.67
2018-05-19T11:13:37.969Z,7.43
2018-05-19T11:16:04.729Z,8.07
2018-05-19T11:18:31.467Z,8.93
2018-05-19T11:20:58.251Z,7.90
2018-05-19T11:23:25.015Z,8.00
2018-05-19T11:25:51.748Z,7.53
2018-05-19T11:28:18.495Z,7.20
2018-05-19T11:30:45.195Z,6.47
2018-05-19T11:33:11.923Z,8.07
2018-05-19T11:35:38.653Z,5.47
2018-05-19T11:38:05.353Z,6.13
2018-05-19T11:40:32.096Z,6.10
2018-05-19T11:42:58.841Z,6.40
2018-05-19T11:45:25.530Z,5.90
2018-05-19T11:47:52.262Z,6.13
2018-05-19T11:50:19.006Z,6.30
2018-05-19T11:52:45.716Z,6.40
2018-05-19T11:55:12.454Z,6.17
2018-05-19T11:57:39.154Z,6.60
2018-05-19T12:00:05.869Z,6.47
2018-05-19T12:02:32.665Z,5.70
2018-05-19T12:04:59.369Z,5.90
2018-05-19T12:07:26.064Z,6.50
2018-05-19T12:09:52.773Z,6.33
2018-05-19T12:12:19.562Z,6.90
2018-05-19T12:14:46.230Z,6.63
2018-05-19T12:17:12.948Z,6.97
2018-05-19T12:19:39.659Z,7.27
2018-05-19T12:22:06.405Z,6.60
2018-05-19T12:24:33.133Z,6.17
2018-05-19T12:26:59.847Z,6.27
2018-05-19T12:29:26.566Z,7.37
2018-05-19T12:31:54.628Z,6.70
2018-05-19T12:34:21.324Z,7.00
2018-05-19T12:36:48.045Z,7.03
2018-05-19T12:39:14.738Z,7.73
2018-05-19T12:41:41.465Z,6.50
2018-05-19T12:44:08.222Z,7.43
2018-05-19T12:46:34.921Z,6.53
2018-05-19T12:49:01.688Z,6.77
2018-05-19T12:51:28.418Z,5.67
2018-05-19T12:53:55.135Z,5.80
2018-05-19T12:56:21.865Z,6.43
2018-05-19T12:58:48.653Z,6.70
2018-05-19T13:01:15.384Z,7.50
2018-05-19T13:03:42.108Z,6.90
2018-05-19T13:06:08.848Z,6.33
2018-05-19T13:08:35.551Z,7.20
2018-05-19T13:11:02.311Z,6.50
2018-05-19T13:13:29.019Z,6.70
2018-05-19T13:15:55.730Z,6.77
2018-05-19T13:18:22.471Z,7.60
2018-05-19T13:20:49.218Z,6.83
2018-05-19T13:23:15.982Z,6.80
2018-05-19T13:25:42.764Z,7.70
2018-05-19T13:28:09.438Z,7.27
2018-05-19T13:30:36.192Z,8.67
2018-05-19T13:33:02.925Z,8.70
2018-05-19T13:35:29.650Z,8.43
2018-05-19T13:37:56.353Z,7.23
2018-05-19T13:40:23.061Z,6.40
2018-05-19T13:42:49.792Z,7.10
2018-05-19T13:45:16.488Z,6.10
2018-05-19T13:47:43.215Z,7.13
2018-05-19T13:50:09.945Z,6.40
2018-05-19T13:52:36.646Z,6.80
2018-05-19T13:55:03.397Z,5.70
2018-05-19T13:57:30.091Z,6.63
2018-05-19T13:59:56.793Z,7.00
2018-05-19T14:02:23.525Z,8.03
2018-05-19T14:04:50.236Z,8.07
2018-05-19T14:07:16.974Z,7.57
2018-05-19T14:09:43.705Z,6.53
2018-05-19T14:12:10.472Z,8.03
2018-05-19T14:14:37.238Z,6.80
2018-05-19T14:17:03.941Z,7.27
2018-05-19T14:19:30.672Z,7.90
2018-05-19T14:21:57.401Z,7.70
2018-05-19T14:24:24.100Z,8.03
2018-05-19T14:26:50.848Z,8.43
2018-05-19T14:29:17.557Z,8.53
2018-05-19T14:31:44.308Z,8.10
2018-05-19T14:34:11.021Z,7.80
2018-05-19T14:36:37.750Z,8.20
2018-05-19T14:39:04.493Z,8.50
2018-05-19T14:41:31.209Z,8.37
2018-05-19T14:43:57.946Z,8.00
2018-05-19T14:46:24.698Z,8.40
2018-05-19T14:48:51.439Z,8.57
2018-05-19T14:51:18.137Z,8.73
2018-05-19T14:53:44.844Z,9.17
2018-05-19T14:56:11.592Z,8.90
2018-05-19T14:58:38.440Z,8.90
2018-05-19T15:01:05.202Z,7.70
2018-05-19T15:03:31.965Z,8.07
2018-05-19T15:05:58.684Z,7.23
2018-05-19T15:08:25.416Z,7.13
2018-05-19T15:10:52.126Z,7.97
2018-05-19T15:13:18.863Z,7.47
2018-05-19T15:15:45.584Z,7.20
2018-05-19T15:18:12.311Z,7.90
2018-05-19T15:20:39.031Z,7.20
2018-05-19T15:23:05.779Z,6.70
2018-05-19T15:25:32.496Z,7.87
2018-05-19T15:28:00.006Z,6.73
2018-05-19T15:30:27.019Z,5.53
2018-05-19T15:32:53.849Z,6.60
2018-05-19T15:35:20.590Z,6.33
2018-05-19T15:37:47.304Z,6.10
2018-05-19T15:40:14.010Z,6.00
2018-05-19T15:42:40.710Z,5.57
2018-05-19T15:45:07.453Z,6.20
2018-05-19T15:47:34.163Z,6.30
2018-05-19T15:50:00.861Z,6.00
2018-05-19T15:52:27.606Z,6.00
2018-05-19T15:54:54.308Z,6.30
2018-05-19T15:57:21.006Z,6.20
2018-05-19T15:59:47.731Z,6.07
2018-05-19T16:02:14.749Z,5.47
2018-05-19T16:04:41.531Z,6.47
2018-05-19T16:07:08.251Z,5.70
2018-05-19T16:09:35.007Z,6.13
2018-05-19T16:12:01.709Z,5.60
2018-05-19T16:14:28.417Z,6.47
2018-05-19T16:16:55.145Z,6.00
2018-05-19T16:19:21.905Z,6.30
2018-05-19T16:21:48.615Z,5.90
2018-05-19T16:24:15.342Z,6.27
2018-05-19T16:26:42.080Z,6.43
2018-05-19T16:29:08.776Z,6.33
2018-05-19T16:31:35.513Z,7.80
2018-05-19T16:34:02.226Z,7.67
2018-05-19T16:36:28.934Z,6.90
2018-05-19T16:38:55.660Z,6.70
2018-05-19T16:41:22.389Z,7.43
2018-05-19T16:43:49.102Z,8.07
2018-05-19T16:46:15.838Z,7.97
2018-05-19T16:48:42.547Z,8.37
2018-05-19T16:51:09.263Z,9.10
2018-05-19T16:53:35.996Z,8.90
2018-05-19T16:56:02.707Z,7.53
2018-05-19T16:58:29.439Z,6.83
2018-05-19T17:00:56.176Z,7.83
2018-05-19T17:03:22.880Z,6.60
2018-05-19T17:05:49.657Z,8.10
2018-05-19T17:08:16.370Z,7.03
2018-05-19T17:10:43.081Z,7.60
2018-05-19T17:13:09.806Z,7.37
2018-05-19T17:15:38.109Z,6.60
2018-05-19T17:18:04.830Z,6.70
2018-05-19T17:20:31.585Z,7.10
2018-05-19T17:22:58.309Z,6.47
2018-05-19T17:25:25.124Z,7.00
2018-05-19T17:27:51.857Z,7.40
2018-05-19T17:30:18.570Z,6.77
2018-05-19T17:32:45.320Z,6.50
2018-05-19T17:35:12.026Z,7.47
2018-05-19T17:37:38.747Z,6.90
2018-05-19T17:40:05.547Z,6.40
2018-05-19T17:42:32.265Z,7.10
2018-05-19T17:44:58.995Z,6.83
2018-05-19T17:47:25.726Z,5.67
2018-05-19T17:49:52.429Z,6.13
2018-05-19T17:52:19.135Z,6.40
2018-05-19T17:54:45.890Z,5.87
2018-05-19T17:57:12.677Z,6.67
2018-05-19T17:59:39.356Z,6.00
2018-05-19T18:02:06.109Z,7.40
2018-05-19T18:04:34.009Z,6.27
2018-05-19T18:07:00.768Z,7.10
2018-05-19T18:09:27.515Z,6.40
2018-05-19T18:11:54.229Z,6.50
2018-05-19T18:14:20.952Z,6.53
2018-05-19T18:16:47.663Z,6.50
2018-05-19T18:19:14.387Z,6.50
2018-05-19T18:21:41.128Z,6.20
2018-05-19T18:24:07.842Z,6.60
2018-05-19T18:26:34.564Z,7.13
2018-05-19T18:29:01.266Z,6.63
2018-05-19T18:31:27.976Z,6.63
2018-05-19T18:33:54.698Z,7.33
2018-05-19T18:36:21.388Z,8.07
2018-05-19T18:38:48.117Z,7.20
2018-05-19T18:41:14.842Z,7.00
2018-05-19T18:43:41.542Z,7.50
2018-05-19T18:46:08.322Z,6.93
2018-05-19T18:48:35.036Z,7.30
2018-05-19T18:51:01.793Z,7.60
2018-05-19T18:53:28.506Z,7.70
2018-05-19T18:55:55.753Z,7.80
2018-05-19T18:58:22.486Z,7.50
2018-05-19T19:00:49.202Z,8.20
2018-05-19T19:03:15.907Z,8.73
2018-05-19T19:05:42.636Z,7.90
2018-05-19T19:08:09.365Z,8.87
2018-05-19T19:10:36.104Z,9.17
2018-05-19T19:13:02.862Z,8.57
2018-05-19T19:15:29.606Z,8.20
2018-05-19T19:17:56.353Z,7.23
2018-05-19T19:20:23.081Z,7.60
2018-05-19T19:22:49.776Z,7.27
2018-05-19T19:25:16.503Z,7.43
2018-05-19T19:27:43.266Z,7.70
2018-05-19T19:30:10.001Z,7.43
2018-05-19T19:32:36.747Z,8.07
2018-05-19T19:35:03.454Z,7.57
2018-05-19T19:37:30.199Z,8.10
2018-05-19T19:39:57.478Z,7.70
2018-05-19T19:42:24.209Z,7.30
2018-05-19T19:44:50.917Z,6.60
2018-05-19T19:47:17.632Z,7.83
2018-05-19T19:49:44.356Z,7.63
2018-05-19T19:52:11.504Z,7.60
2018-05-19T19:54:38.562Z,7.23
2018-05-19T19:57:05.423Z,7.80
2018-05-19T19:59:32.284Z,7.73
2018-05-19T20:01:58.897Z,7.97
2018-05-19T20:04:25.641Z,8.93
2018-05-19T20:06:52.381Z,7.90
2018-05-19T20:09:19.122Z,8.07
2018-05-19T20:11:45.857Z,7.63
2018-05-19T20:14:12.609Z,7.50
2018-05-19T20:16:39.341Z,7.70
2018-05-19T20:19:06.056Z,8.27
2018-05-19T20:21:32.753Z,8.70
2018-05-19T20:23:59.541Z,8.20
2018-05-19T20:26:26.269Z,8.80
2018-05-19T20:28:53.008Z,9.00
2018-05-19T20:31:19.762Z,10.40
2018-05-19T20:33:46.471Z,9.90
2018-05-19T20:36:13.579Z,9.63
2018-05-19T20:38:40.377Z,9.77
2018-05-19T20:41:07.101Z,9.60
2018-05-19T20:43:33.825Z,10.87
2018-05-19T20:46:00.546Z,9.27
2018-05-19T20:48:27.327Z,9.57
2018-05-19T20:50:54.038Z,9.90
2018-05-19T20:53:20.781Z,10.20
2018-05-19T20:55:47.512Z,10.73
2018-05-19T20:58:14.255Z,10.90
2018-05-19T21:00:40.990Z,10.33
2018-05-19T21:03:07.736Z,11.20
2018-05-19T21:05:34.777Z,12.40
2018-05-19T21:08:01.501Z,11.10
2018-05-19T21:10:28.230Z,11.67
2018-05-19T21:12:54.978Z,11.67
2018-05-19T21:15:21.703Z,10.60
2018-05-19T21:17:48.411Z,11.40
2018-05-19T21:20:15.169Z,11.77
2018-05-19T21:22:41.919Z,10.70
2018-05-19T21:25:08.624Z,11.50
2018-05-19T21:27:35.381Z,11.13
2018-05-19T21:30:02.100Z,10.90
2018-05-19T21:32:28.828Z,11.03
2018-05-19T21:34:55.554Z,11.03
2018-05-19T21:37:22.314Z,11.60
2018-05-19T21:39:49.059Z,11.90
2018-05-19T21:42:15.788Z,12.60
2018-05-19T21:44:42.521Z,12.23
2018-05-19T21:47:09.235Z,10.97
2018-05-19T21:49:35.945Z,12.30
2018-05-19T21:52:03.446Z,11.23
2018-05-19T21:54:35.609Z,11.73
2018-05-19T21:57:02.408Z,11.37
2018-05-19T21:59:29.120Z,12.30
2018-05-19T22:01:55.846Z,11.47
2018-05-19T22:04:22.594Z,11.67
2018-05-19T22:06:49.303Z,12.20
2018-05-19T22:09:16.026Z,12.40
2018-05-19T22:11:42.751Z,12.30
2018-05-19T22:14:09.479Z,13.93
2018-05-19T22:16:36.208Z,14.80
2018-05-19T22:19:02.929Z,13.80
2018-05-19T22:21:29.682Z,14.37
2018-05-19T22:23:56.393Z,13.57
2018-05-19T22:26:23.101Z,13.87
2018-05-19T22:28:49.836Z,14.20
2018-05-19T22:31:16.544Z,14.43
2018-05-19T22:33:43.279Z,13.70
2018-05-19T22:36:10.014Z,14.90
2018-05-19T22:38:36.733Z,13.53
2018-05-19T22:41:03.500Z,14.33
2018-05-19T22:43:30.214Z,13.93
2018-05-19T22:45:56.920Z,15.37
2018-05-19T22:48:23.663Z,13.70
2018-05-19T22:50:50.409Z,13.23
2018-05-19T22:53:17.146Z,14.60
2018-05-19T22:55:44.776Z,14.70
2018-05-19T22:58:11.501Z,15.30
2018-05-19T23:00:38.244Z,14.33
2018-05-19T23:03:04.957Z,15.30
2018-05-19T23:05:31.668Z,13.73
2018-05-19T23:07:58.404Z,15.37
2018-05-19T23:10:25.123Z,14.27
2018-05-19T23:12:51.863Z,14.37
2018-05-19T23:15:18.573Z,13.40
2018-05-19T23:17:45.300Z,13.87
2018-05-19T23:20:12.062Z,14.13
2018-05-19T23:22:41.542Z,13.97
2018-05-19T23:25:08.288Z,13.37
2018-05-19T23:27:35.009Z,13.20
2018-05-19T23:30:01.738Z,12.03
2018-05-19T23:32:28.476Z,11.93
2018-05-19T23:34:55.186Z,11.43
2018-05-19T23:37:21.913Z,11.73
2018-05-19T23:39:48.668Z,12.33
2018-05-19T23:42:15.380Z,11.43
2018-05-19T23:44:42.138Z,12.47
2018-05-19T23:47:08.866Z,12.23
2018-05-19T23:49:35.570Z,11.90
2018-05-19T23:52:02.311Z,12.10
2018-05-19T23:54:29.049Z,11.90
2018-05-19T23:56:55.831Z,10.80
2018-05-19T23:59:22.542Z,10.97
